Time;durP1;ratioP1;P1;durP2;ratioP2;P2;SDS_P1;SDS_P2;PMS_P1;PMS_P2;Temp;Humidity;BMP_temperature;BMP_pressure;BME280_temperature;BME280_humidity;BME280_pressure;Samples;Min_cycle;Max_cycle;Signal;HPM_P1;HPM_P2
2021/10/30 00:01:23;;;;;;;18.88;13.13;;;;;;;;;;5062253;28;20101;-64
2021/10/30 00:04:09;;;;;;;18.58;12.45;;;;;;;;;;5055780;28;20029;-61
2021/10/30 00:06:55;;;;;;;20.45;12.85;;;;;;;;;;5059788;28;20028;-61
2021/10/30 00:09:41;;;;;;;22.33;13.68;;;;;;;;;;5057140;28;20488;-63
2021/10/30 00:12:26;;;;;;;18.17;12.30;;;;;;;;;;5055154;28;20063;-73
2021/10/30 00:15:12;;;;;;;15.57;10.55;;;;;;;;;;5048812;28;20036;-63
2021/10/30 00:17:57;;;;;;;18.13;13.32;;;;;;;;;;5057619;28;20028;-63
2021/10/30 00:20:43;;;;;;;18.98;12.82;;;;;;;;;;5063497;28;20024;-63
2021/10/30 00:23:28;;;;;;;18.67;12.63;;;;;;;;;;5068301;28;20090;-63
2021/10/30 00:26:13;;;;;;;20.35;13.32;;;;;;;;;;5054722;28;20435;-67
2021/10/30 00:28:59;;;;;;;19.38;13.05;;;;;;;;;;5055390;28;20039;-65
2021/10/30 00:31:44;;;;;;;19.63;14.10;;;;;;;;;;5059037;28;20029;-61
2021/10/30 00:34:29;;;;;;;19.92;12.45;;;;;;;;;;5047929;28;20061;-67
2021/10/30 00:37:15;;;;;;;17.90;12.18;;;;;;;;;;5047735;28;20528;-67
2021/10/30 00:40:00;;;;;;;19.17;12.98;;;;;;;;;;5053081;28;20032;-66
2021/10/30 00:42:45;;;;;;;20.95;13.20;;;;;;;;;;5042412;28;20582;-65
2021/10/30 00:45:31;;;;;;;19.35;13.15;;;;;;;;;;5056999;28;20419;-66
2021/10/30 00:48:18;;;;;;;22.27;13.50;;;;;;;;;;5050064;28;20043;-63
2021/10/30 00:51:03;;;;;;;19.25;13.38;;;;;;;;;;5060609;28;20017;-69
2021/10/30 00:53:49;;;;;;;24.50;14.65;;;;;;;;;;5054691;28;20029;-62
2021/10/30 00:56:35;;;;;;;24.45;13.90;;;;;;;;;;5065504;28;20047;-62
2021/10/30 00:59:21;;;;;;;21.02;13.82;;;;;;;;;;5058420;28;20487;-62
2021/10/30 01:02:06;;;;;;;17.75;12.57;;;;;;;;;;5079405;28;20476;-62
2021/10/30 01:04:51;;;;;;;18.92;12.73;;;;;;;;;;5050857;28;20040;-62
2021/10/30 01:07:37;;;;;;;21.02;13.23;;;;;;;;;;5057729;28;20078;-66
2021/10/30 01:10:22;;;;;;;19.58;13.98;;;;;;;;;;5057619;28;20025;-74
2021/10/30 01:13:08;;;;;;;20.60;13.10;;;;;;;;;;5052434;28;20120;-72
2021/10/30 01:15:53;;;;;;;21.63;14.10;;;;;;;;;;5062883;28;20033;-73
2021/10/30 01:18:39;;;;;;;21.58;13.57;;;;;;;;;;5056795;28;20024;-73
2021/10/30 01:21:26;;;;;;;19.73;12.65;;;;;;;;;;5054911;28;20033;-73
2021/10/30 01:24:11;;;;;;;17.13;11.95;;;;;;;;;;5060901;28;20020;-74
2021/10/30 01:26:56;;;;;;;18.90;12.40;;;;;;;;;;5058712;28;20505;-64
2021/10/30 01:29:41;;;;;;;18.58;11.60;;;;;;;;;;5055166;28;20021;-65
2021/10/30 01:32:27;;;;;;;18.30;11.70;;;;;;;;;;5061257;28;20036;-66
2021/10/30 01:35:12;;;;;;;20.02;12.65;;;;;;;;;;5064799;28;20127;-67
2021/10/30 01:37:59;;;;;;;21.50;12.50;;;;;;;;;;5057318;28;20044;-67
2021/10/30 01:40:48;;;;;;;19.73;12.38;;;;;;;;;;5061703;28;20044;-66
2021/10/30 01:43:33;;;;;;;17.40;11.57;;;;;;;;;;5050610;28;20037;-61
2021/10/30 01:46:19;;;;;;;19.35;11.05;;;;;;;;;;5053703;28;20423;-62
2021/10/30 01:49:05;;;;;;;17.85;11.75;;;;;;;;;;5053568;28;20036;-69
2021/10/30 01:51:50;;;;;;;19.33;11.35;;;;;;;;;;5053130;28;20029;-68
2021/10/30 01:54:35;;;;;;;17.75;12.20;;;;;;;;;;5040038;28;20442;-66
2021/10/30 01:57:20;;;;;;;16.15;11.02;;;;;;;;;;5046340;28;20094;-66
2021/10/30 02:00:07;;;;;;;18.20;11.52;;;;;;;;;;5044276;28;20036;-65
2021/10/30 02:02:52;;;;;;;20.42;12.15;;;;;;;;;;5067309;28;20025;-61
2021/10/30 02:05:37;;;;;;;18.42;12.35;;;;;;;;;;5053925;28;20029;-62
2021/10/30 02:08:23;;;;;;;19.50;12.23;;;;;;;;;;5061516;28;20038;-61
2021/10/30 02:11:08;;;;;;;16.13;11.70;;;;;;;;;;5070048;28;20494;-62
2021/10/30 02:13:53;;;;;;;20.58;12.63;;;;;;;;;;5053502;28;20044;-62
2021/10/30 02:16:39;;;;;;;17.35;11.13;;;;;;;;;;5059797;28;20549;-60
2021/10/30 02:19:24;;;;;;;18.83;13.13;;;;;;;;;;5052243;28;20037;-64
2021/10/30 02:22:09;;;;;;;20.42;12.05;;;;;;;;;;5061306;28;20083;-68
2021/10/30 02:24:54;;;;;;;17.45;10.60;;;;;;;;;;5070244;28;20117;-67
2021/10/30 02:27:40;;;;;;;14.65;10.55;;;;;;;;;;5069087;28;20111;-66
2021/10/30 02:30:25;;;;;;;15.32;12.18;;;;;;;;;;5043587;28;20511;-66
2021/10/30 02:33:10;;;;;;;18.88;11.75;;;;;;;;;;5055225;28;20533;-67
2021/10/30 02:35:55;;;;;;;21.75;12.32;;;;;;;;;;5059419;28;20091;-68
2021/10/30 02:38:41;;;;;;;17.20;12.18;;;;;;;;;;5057680;28;20380;-69
2021/10/30 02:41:26;;;;;;;15.95;11.02;;;;;;;;;;5054579;28;20025;-74
2021/10/30 02:44:11;;;;;;;16.13;10.95;;;;;;;;;;5043841;28;20033;-68
2021/10/30 02:46:57;;;;;;;17.33;11.75;;;;;;;;;;5056131;28;20128;-67
2021/10/30 02:49:42;;;;;;;18.30;11.35;;;;;;;;;;5058617;28;20036;-66
2021/10/30 02:52:28;;;;;;;16.60;11.52;;;;;;;;;;5057400;28;20045;-66
2021/10/30 02:55:13;;;;;;;15.38;10.95;;;;;;;;;;5062266;28;20051;-68
2021/10/30 02:57:59;;;;;;;17.20;12.15;;;;;;;;;;5057514;28;20016;-66
2021/10/30 03:00:44;;;;;;;16.35;11.02;;;;;;;;;;5071666;28;20043;-68
2021/10/30 03:03:29;;;;;;;16.58;11.90;;;;;;;;;;5063116;28;20110;-68
2021/10/30 03:06:15;;;;;;;17.85;11.10;;;;;;;;;;5061054;28;20044;-70
2021/10/30 03:09:02;;;;;;;17.63;10.52;;;;;;;;;;5068135;28;20111;-66
2021/10/30 03:11:48;;;;;;;19.52;10.50;;;;;;;;;;5055099;28;20028;-67
2021/10/30 03:14:33;;;;;;;17.83;11.63;;;;;;;;;;5065230;28;20041;-67
2021/10/30 03:17:18;;;;;;;16.55;11.07;;;;;;;;;;5069367;28;20032;-62
2021/10/30 03:20:04;;;;;;;17.70;10.85;;;;;;;;;;5068081;28;20048;-63
2021/10/30 03:22:49;;;;;;;15.85;11.20;;;;;;;;;;5058025;28;20119;-64
2021/10/30 03:25:34;;;;;;;14.18;9.65;;;;;;;;;;5057361;28;20509;-63
2021/10/30 03:28:20;;;;;;;17.45;9.73;;;;;;;;;;5056230;28;20029;-66
2021/10/30 03:31:05;;;;;;;14.90;10.88;;;;;;;;;;5056088;28;20353;-64
2021/10/30 03:33:50;;;;;;;23.23;10.82;;;;;;;;;;5053284;28;20036;-60
2021/10/30 03:36:36;;;;;;;18.52;12.50;;;;;;;;;;5052950;28;20033;-61
2021/10/30 03:39:21;;;;;;;19.05;11.52;;;;;;;;;;5058409;28;20429;-61
2021/10/30 03:42:06;;;;;;;19.17;12.07;;;;;;;;;;5050013;28;20029;-62
2021/10/30 03:44:52;;;;;;;15.27;10.60;;;;;;;;;;5060603;28;20043;-63
2021/10/30 03:47:37;;;;;;;16.13;11.52;;;;;;;;;;5056368;28;20048;-63
2021/10/30 03:50:22;;;;;;;20.48;11.88;;;;;;;;;;5079034;28;20107;-62
2021/10/30 03:53:08;;;;;;;17.08;11.07;;;;;;;;;;5054361;28;20059;-72
2021/10/30 03:55:53;;;;;;;19.25;11.65;;;;;;;;;;5064760;28;20041;-60
2021/10/30 03:58:38;;;;;;;16.48;10.05;;;;;;;;;;5059115;28;20025;-61
2021/10/30 04:01:23;;;;;;;16.05;11.00;;;;;;;;;;5066308;28;20094;-60
2021/10/30 04:04:09;;;;;;;18.75;11.63;;;;;;;;;;5058886;28;20024;-65
2021/10/30 04:06:54;;;;;;;15.77;9.93;;;;;;;;;;5065479;28;20563;-60
2021/10/30 04:09:39;;;;;;;16.60;11.23;;;;;;;;;;5058248;28;20036;-61
2021/10/30 04:12:25;;;;;;;15.07;10.95;;;;;;;;;;5056747;28;20036;-64
2021/10/30 04:15:10;;;;;;;17.80;11.68;;;;;;;;;;5072282;28;20039;-61
2021/10/30 04:17:55;;;;;;;14.88;10.10;;;;;;;;;;5052905;28;20495;-61
2021/10/30 04:20:40;;;;;;;17.48;9.90;;;;;;;;;;5055997;28;20064;-60
2021/10/30 04:23:26;;;;;;;13.85;10.18;;;;;;;;;;5056931;28;20028;-61
2021/10/30 04:26:11;;;;;;;13.93;10.70;;;;;;;;;;5041037;28;20016;-60
2021/10/30 04:28:56;;;;;;;17.02;12.07;;;;;;;;;;5066462;28;20056;-61
2021/10/30 04:31:43;;;;;;;15.68;10.70;;;;;;;;;;5072437;28;20030;-63
2021/10/30 04:34:42;;;;;;;17.55;10.88;;;;;;;;;;5057318;28;20043;-60
2021/10/30 04:37:27;;;;;;;16.58;11.23;;;;;;;;;;5064206;28;20024;-61
2021/10/30 04:40:12;;;;;;;15.13;10.70;;;;;;;;;;5058277;28;20036;-60
2021/10/30 04:42:58;;;;;;;15.63;11.48;;;;;;;;;;5060799;28;20107;-60
2021/10/30 04:45:43;;;;;;;18.40;12.50;;;;;;;;;;5058674;28;20060;-60
2021/10/30 04:48:28;;;;;;;19.48;12.23;;;;;;;;;;5061190;28;20041;-60
2021/10/30 04:51:14;;;;;;;17.33;11.68;;;;;;;;;;5065019;28;20472;-66
2021/10/30 04:53:59;;;;;;;14.52;9.60;;;;;;;;;;5051269;28;20040;-69
2021/10/30 04:56:44;;;;;;;18.00;11.02;;;;;;;;;;5060433;28;20405;-68
2021/10/30 04:59:30;;;;;;;22.83;11.70;;;;;;;;;;5049164;28;20556;-67
2021/10/30 05:02:15;;;;;;;14.82;10.77;;;;;;;;;;5042140;28;20024;-67
2021/10/30 05:05:00;;;;;;;19.25;13.68;;;;;;;;;;5058558;28;20380;-67
2021/10/30 05:07:45;;;;;;;17.08;12.45;;;;;;;;;;5051264;28;20025;-69
2021/10/30 05:10:31;;;;;;;16.05;11.10;;;;;;;;;;5050068;28;20419;-68
2021/10/30 05:13:16;;;;;;;17.45;11.25;;;;;;;;;;5058028;28;20745;-66
2021/10/30 05:16:01;;;;;;;16.10;10.60;;;;;;;;;;5058526;28;20499;-66
2021/10/30 05:18:46;;;;;;;17.60;11.77;;;;;;;;;;5065613;28;20107;-66
2021/10/30 05:21:32;;;;;;;16.38;11.77;;;;;;;;;;5063954;28;20036;-68
2021/10/30 05:24:17;;;;;;;17.85;12.40;;;;;;;;;;5056279;28;20025;-61
2021/10/30 05:27:02;;;;;;;21.75;14.30;;;;;;;;;;5054782;28;20490;-74
2021/10/30 05:29:47;;;;;;;19.50;12.25;;;;;;;;;;5045128;28;20029;-64
2021/10/30 05:32:33;;;;;;;20.45;13.02;;;;;;;;;;5040090;28;20428;-65
2021/10/30 05:35:18;;;;;;;18.98;12.38;;;;;;;;;;5061250;28;20150;-64
2021/10/30 05:38:03;;;;;;;17.40;11.65;;;;;;;;;;5060067;28;20139;-66
2021/10/30 05:40:48;;;;;;;17.02;12.25;;;;;;;;;;5039068;28;20498;-66
2021/10/30 05:43:35;;;;;;;17.20;12.20;;;;;;;;;;5050321;28;20387;-65
2021/10/30 05:46:20;;;;;;;16.90;11.32;;;;;;;;;;5066383;28;20044;-70
2021/10/30 05:49:07;;;;;;;15.65;11.32;;;;;;;;;;5055592;28;20514;-68
2021/10/30 05:51:52;;;;;;;20.10;13.50;;;;;;;;;;5051778;28;20016;-67
2021/10/30 05:54:38;;;;;;;18.55;12.90;;;;;;;;;;5058089;28;20103;-68
2021/10/30 05:57:25;;;;;;;20.42;13.43;;;;;;;;;;5058060;28;20401;-70
2021/10/30 06:00:10;;;;;;;17.30;11.25;;;;;;;;;;5044932;28;20553;-69
2021/10/30 06:02:59;;;;;;;19.90;13.75;;;;;;;;;;5049410;28;20028;-74
2021/10/30 06:05:44;;;;;;;16.95;12.45;;;;;;;;;;5070233;28;20064;-69
2021/10/30 06:08:29;;;;;;;17.67;12.82;;;;;;;;;;5072176;28;20024;-67
2021/10/30 06:11:15;;;;;;;18.13;12.23;;;;;;;;;;5051358;28;20495;-66
2021/10/30 06:14:00;;;;;;;16.67;11.63;;;;;;;;;;5049405;28;20416;-67
2021/10/30 06:16:46;;;;;;;18.75;12.95;;;;;;;;;;5051345;28;20403;-67
2021/10/30 06:19:31;;;;;;;16.73;11.70;;;;;;;;;;5054396;28;20028;-66
2021/10/30 06:22:16;;;;;;;27.08;13.27;;;;;;;;;;5063575;28;20523;-75
2021/10/30 06:25:02;;;;;;;20.80;13.40;;;;;;;;;;5045635;28;20031;-63
2021/10/30 06:27:47;;;;;;;18.20;12.95;;;;;;;;;;5057077;28;20033;-63
2021/10/30 06:30:33;;;;;;;19.13;11.68;;;;;;;;;;5050862;28;20484;-63
2021/10/30 06:33:18;;;;;;;17.25;11.13;;;;;;;;;;5062809;28;20032;-63
2021/10/30 06:36:03;;;;;;;17.33;11.60;;;;;;;;;;5061875;28;20491;-63
2021/10/30 06:38:49;;;;;;;19.85;13.23;;;;;;;;;;5063463;28;20044;-60
2021/10/30 06:41:35;;;;;;;16.10;10.88;;;;;;;;;;5061362;28;20032;-68
2021/10/30 06:44:20;;;;;;;19.95;13.45;;;;;;;;;;5062908;28;20029;-67
2021/10/30 06:47:05;;;;;;;21.17;13.80;;;;;;;;;;5066685;28;20067;-65
2021/10/30 06:49:52;;;;;;;17.83;12.75;;;;;;;;;;5050396;28;20028;-66
2021/10/30 06:52:38;;;;;;;17.35;11.15;;;;;;;;;;5048721;28;20028;-65
2021/10/30 06:55:23;;;;;;;21.02;12.48;;;;;;;;;;5076111;28;20040;-66
2021/10/30 06:58:09;;;;;;;16.13;10.75;;;;;;;;;;5064674;28;20020;-65
2021/10/30 07:00:55;;;;;;;19.58;11.23;;;;;;;;;;5066677;28;20027;-60
2021/10/30 07:03:42;;;;;;;15.13;10.63;;;;;;;;;;5064113;28;20025;-61
2021/10/30 07:06:28;;;;;;;18.42;12.82;;;;;;;;;;5075237;28;20036;-60
2021/10/30 07:09:13;;;;;;;22.60;13.10;;;;;;;;;;5065434;28;20025;-60
2021/10/30 07:11:58;;;;;;;21.35;12.48;;;;;;;;;;5064672;28;20614;-63
2021/10/30 07:14:43;;;;;;;23.10;14.82;;;;;;;;;;5065455;28;20110;-76
2021/10/30 07:17:29;;;;;;;16.27;11.65;;;;;;;;;;5065110;28;20543;-61
2021/10/30 07:20:14;;;;;;;16.73;12.05;;;;;;;;;;5066597;28;20040;-65
2021/10/30 07:22:59;;;;;;;18.95;12.05;;;;;;;;;;5064109;28;20112;-64
2021/10/30 07:25:44;;;;;;;19.05;12.35;;;;;;;;;;5063698;28;20526;-64
2021/10/30 07:28:30;;;;;;;18.80;12.75;;;;;;;;;;5048778;28;20027;-63
2021/10/30 07:31:15;;;;;;;17.45;12.82;;;;;;;;;;5065627;28;20039;-67
2021/10/30 07:34:00;;;;;;;20.33;12.65;;;;;;;;;;5065543;28;20107;-66
2021/10/30 07:36:45;;;;;;;17.63;12.77;;;;;;;;;;5063671;28;20043;-62
2021/10/30 07:39:31;;;;;;;17.55;12.23;;;;;;;;;;5065453;28;20032;-62
2021/10/30 07:42:17;;;;;;;15.60;11.30;;;;;;;;;;5062320;28;20029;-62
2021/10/30 07:45:03;;;;;;;19.30;12.75;;;;;;;;;;5049669;28;20024;-59
2021/10/30 07:47:48;;;;;;;16.00;11.27;;;;;;;;;;5063569;28;20511;-61
2021/10/30 07:50:34;;;;;;;20.75;11.85;;;;;;;;;;5065676;28;20028;-62
2021/10/30 07:53:20;;;;;;;16.50;11.90;;;;;;;;;;5068885;28;20029;-62
2021/10/30 07:56:05;;;;;;;15.63;11.90;;;;;;;;;;5063285;28;20044;-60
2021/10/30 07:58:50;;;;;;;17.42;11.23;;;;;;;;;;5060279;28;20029;-59
2021/10/30 08:01:35;;;;;;;15.25;10.93;;;;;;;;;;5063520;28;20028;-60
2021/10/30 08:04:21;;;;;;;19.10;11.25;;;;;;;;;;5066950;28;20027;-61
2021/10/30 08:07:06;;;;;;;16.65;11.68;;;;;;;;;;5041131;28;20029;-63
2021/10/30 08:09:51;;;;;;;19.27;11.38;;;;;;;;;;5045508;28;20499;-60
2021/10/30 08:12:37;;;;;;;19.58;12.30;;;;;;;;;;5054745;28;20058;-70
2021/10/30 08:15:22;;;;;;;15.48;11.02;;;;;;;;;;5061357;28;20388;-66
2021/10/30 08:18:08;;;;;;;18.25;11.88;;;;;;;;;;5048579;28;20447;-67
2021/10/30 08:20:53;;;;;;;19.70;12.20;;;;;;;;;;5061282;28;20035;-65
2021/10/30 08:23:38;;;;;;;15.55;10.93;;;;;;;;;;5060834;28;20025;-65
2021/10/30 08:26:24;;;;;;;16.60;12.02;;;;;;;;;;5059617;28;20043;-67
2021/10/30 08:29:09;;;;;;;16.60;12.48;;;;;;;;;;5059168;28;20060;-65
2021/10/30 08:31:54;;;;;;;15.93;11.02;;;;;;;;;;5067405;28;20032;-65
2021/10/30 08:34:40;;;;;;;19.65;13.50;;;;;;;;;;5039549;28;20033;-64
2021/10/30 08:37:25;;;;;;;15.40;11.65;;;;;;;;;;5059705;28;20059;-67
2021/10/30 08:40:13;;;;;;;18.25;12.88;;;;;;;;;;5062190;28;20028;-66
2021/10/30 08:42:58;;;;;;;19.42;12.27;;;;;;;;;;5056177;28;20021;-67
2021/10/30 08:45:44;;;;;;;17.35;12.35;;;;;;;;;;5062145;28;20040;-65
2021/10/30 08:48:31;;;;;;;17.60;11.63;;;;;;;;;;5065396;28;20036;-67
2021/10/30 08:51:16;;;;;;;18.88;12.75;;;;;;;;;;5061684;28;20028;-70
2021/10/30 08:54:03;;;;;;;18.02;12.52;;;;;;;;;;5058215;28;20027;-71
2021/10/30 08:56:48;;;;;;;17.58;12.77;;;;;;;;;;5062505;28;20360;-72
2021/10/30 08:59:43;;;;;;;20.67;12.25;;;;;;;;;;5068467;28;20035;-71
2021/10/30 09:02:34;;;;;;;18.15;12.27;;;;;;;;;;5055511;28;20029;-68
2021/10/30 09:05:22;;;;;;;21.23;12.18;;;;;;;;;;5055484;28;20079;-67
2021/10/30 09:08:08;;;;;;;17.45;12.10;;;;;;;;;;5070409;28;20464;-70
2021/10/30 09:10:55;;;;;;;18.90;12.07;;;;;;;;;;5051559;28;20109;-65
2021/10/30 09:13:41;;;;;;;16.52;10.77;;;;;;;;;;5062478;28;20028;-68
2021/10/30 09:16:26;;;;;;;29.02;12.10;;;;;;;;;;5055815;28;20071;-65
2021/10/30 09:19:12;;;;;;;19.85;12.02;;;;;;;;;;5047527;28;20414;-64
2021/10/30 09:22:04;;;;;;;17.95;11.25;;;;;;;;;;5065589;28;20039;-64
2021/10/30 09:25:01;;;;;;;14.68;10.30;;;;;;;;;;5063478;28;20553;-60
2021/10/30 09:27:51;;;;;;;20.42;11.77;;;;;;;;;;5060394;28;20544;-61
2021/10/30 09:30:36;;;;;;;18.27;12.18;;;;;;;;;;5060006;28;20028;-60
2021/10/30 09:33:22;;;;;;;16.40;12.00;;;;;;;;;;5061550;28;20131;-62
2021/10/30 09:36:11;;;;;;;17.60;11.30;;;;;;;;;;5059007;28;20313;-61
2021/10/30 09:39:02;;;;;;;16.80;11.70;;;;;;;;;;5064120;28;20035;-60
2021/10/30 09:41:51;;;;;;;18.08;11.65;;;;;;;;;;5060058;28;20040;-62
2021/10/30 09:44:37;;;;;;;17.95;11.13;;;;;;;;;;5060614;28;20491;-63
2021/10/30 09:47:22;;;;;;;17.20;11.77;;;;;;;;;;5061534;28;20049;-65
2021/10/30 09:50:21;;;;;;;16.13;11.43;;;;;;;;;;5059334;28;20056;-65
2021/10/30 09:53:23;;;;;;;20.60;11.82;;;;;;;;;;5057449;28;20387;-68
2021/10/30 09:56:11;;;;;;;15.25;10.30;;;;;;;;;;5062173;28;20051;-66
2021/10/30 09:58:56;;;;;;;15.68;11.00;;;;;;;;;;5065826;28;20020;-67
2021/10/30 10:01:46;;;;;;;16.45;11.75;;;;;;;;;;5060397;28;20630;-64
2021/10/30 10:04:31;;;;;;;15.00;10.23;;;;;;;;;;5066707;28;20704;-65
2021/10/30 10:07:19;;;;;;;16.63;10.82;;;;;;;;;;5076802;28;20032;-65
2021/10/30 10:10:05;;;;;;;15.35;10.85;;;;;;;;;;5066628;28;20035;-64
2021/10/30 10:12:52;;;;;;;15.70;11.20;;;;;;;;;;5071044;28;20475;-65
2021/10/30 10:15:41;;;;;;;17.40;10.88;;;;;;;;;;5070933;28;20032;-67
2021/10/30 10:18:26;;;;;;;18.15;12.05;;;;;;;;;;5083969;28;20111;-63
2021/10/30 10:21:22;;;;;;;21.67;15.02;;;;;;;;;;5063756;28;20396;-64
2021/10/30 10:24:20;;;;;;;20.60;11.75;;;;;;;;;;5066442;28;20036;-63
2021/10/30 10:27:06;;;;;;;19.70;13.02;;;;;;;;;;5053578;28;20383;-65
2021/10/30 10:29:55;;;;;;;18.67;12.55;;;;;;;;;;5071749;28;20025;-65
2021/10/30 10:32:41;;;;;;;20.65;12.85;;;;;;;;;;5065888;28;20028;-66
2021/10/30 10:35:26;;;;;;;14.35;10.77;;;;;;;;;;5061463;28;20054;-66
2021/10/30 10:38:11;;;;;;;16.55;10.75;;;;;;;;;;5078422;28;20025;-68
2021/10/30 10:40:56;;;;;;;18.00;11.73;;;;;;;;;;5062449;28;20024;-66
2021/10/30 10:43:42;;;;;;;16.15;12.30;;;;;;;;;;5059109;28;20021;-67
2021/10/30 10:46:28;;;;;;;20.30;12.68;;;;;;;;;;5073880;28;20094;-64
2021/10/30 10:49:14;;;;;;;19.65;13.73;;;;;;;;;;5066377;28;20033;-65
2021/10/30 10:55:04;;;;;;;18.17;12.18;;;;;;;;;;5068272;28;20115;-65
2021/10/30 10:57:49;;;;;;;19.73;13.60;;;;;;;;;;5077965;28;20097;-73
2021/10/30 11:00:35;;;;;;;18.20;11.52;;;;;;;;;;5061617;28;20037;-63
2021/10/30 11:03:30;;;;;;;15.75;11.45;;;;;;;;;;5057140;28;20033;-63
2021/10/30 11:06:16;;;;;;;21.83;13.88;;;;;;;;;;5073262;28;20024;-62
2021/10/30 11:09:12;;;;;;;21.77;14.95;;;;;;;;;;5048737;28;20570;-61
2021/10/30 11:12:17;;;;;;;21.55;13.75;;;;;;;;;;5048025;28;20016;-60
2021/10/30 11:15:10;;;;;;;27.35;15.43;;;;;;;;;;5061419;28;20028;-61
2021/10/30 11:20:46;;;;;;;22.35;12.93;;;;;;;;;;5061300;28;20052;-74
2021/10/30 11:23:40;;;;;;;21.13;13.70;;;;;;;;;;5055822;28;20025;-73
2021/10/30 11:26:29;;;;;;;16.05;11.65;;;;;;;;;;5044057;28;20353;-73
2021/10/30 11:29:14;;;;;;;25.85;13.98;;;;;;;;;;5059494;28;20021;-80
2021/10/30 11:32:01;;;;;;;24.73;15.32;;;;;;;;;;5063804;28;20025;-76
2021/10/30 11:34:50;;;;;;;17.55;12.57;;;;;;;;;;5064288;28;20036;-76
2021/10/30 11:37:39;;;;;;;19.87;12.50;;;;;;;;;;5049726;28;20425;-65
2021/10/30 11:40:24;;;;;;;18.43;12.67;;;;;;;;;;5067038;28;20040;-64
2021/10/30 11:43:12;;;;;;;22.50;13.63;;;;;;;;;;5060144;28;20094;-64
2021/10/30 11:45:58;;;;;;;21.33;13.65;;;;;;;;;;5055804;28;20064;-66
2021/10/30 11:48:47;;;;;;;21.17;14.02;;;;;;;;;;5070876;28;20028;-67
2021/10/30 11:51:35;;;;;;;19.52;13.55;;;;;;;;;;5050001;28;20017;-67
2021/10/30 11:54:21;;;;;;;23.35;14.05;;;;;;;;;;5060973;28;20606;-67
2021/10/30 11:57:10;;;;;;;21.48;13.13;;;;;;;;;;5070355;28;20035;-71
2021/10/30 11:59:56;;;;;;;29.15;15.57;;;;;;;;;;5063915;28;20028;-67
2021/10/30 12:02:59;;;;;;;22.02;15.35;;;;;;;;;;5062665;28;20039;-68
2021/10/30 12:05:45;;;;;;;22.35;14.70;;;;;;;;;;5059687;28;20561;-67
2021/10/30 12:08:33;;;;;;;24.10;15.13;;;;;;;;;;5058253;28;20052;-67
2021/10/30 12:11:19;;;;;;;22.88;15.98;;;;;;;;;;5063963;28;20380;-66
2021/10/30 12:14:04;;;;;;;23.17;16.75;;;;;;;;;;5063324;28;20101;-69
2021/10/30 12:16:50;;;;;;;23.42;15.93;;;;;;;;;;5057237;28;20044;-64
2021/10/30 12:19:37;;;;;;;25.83;17.67;;;;;;;;;;5060962;28;20020;-66
2021/10/30 12:22:30;;;;;;;26.48;17.70;;;;;;;;;;5043838;28;20032;-65
2021/10/30 12:25:23;;;;;;;22.33;17.33;;;;;;;;;;5055899;28;20021;-67
2021/10/30 12:28:08;;;;;;;26.40;18.40;;;;;;;;;;5073669;28;20017;-63
2021/10/30 12:30:54;;;;;;;25.15;18.33;;;;;;;;;;5061736;28;20029;-64
2021/10/30 12:33:43;;;;;;;21.48;16.65;;;;;;;;;;5056143;28;20021;-60
2021/10/30 12:36:28;;;;;;;27.17;19.67;;;;;;;;;;5041321;28;20033;-60
2021/10/30 12:39:20;;;;;;;27.60;18.70;;;;;;;;;;5055466;28;20539;-62
2021/10/30 12:42:07;;;;;;;23.27;15.63;;;;;;;;;;5057743;28;20097;-60
2021/10/30 12:44:52;;;;;;;26.15;18.48;;;;;;;;;;5057409;28;20029;-60
2021/10/30 12:47:40;;;;;;;28.38;19.05;;;;;;;;;;5062581;28;20127;-63
2021/10/30 12:50:25;;;;;;;22.55;16.38;;;;;;;;;;5062839;28;20028;-65
2021/10/30 12:53:31;;;;;;;21.65;14.35;;;;;;;;;;5063085;28;20028;-64
2021/10/30 12:56:17;;;;;;;25.77;17.10;;;;;;;;;;5046567;28;20365;-65
2021/10/30 12:59:03;;;;;;;25.50;17.25;;;;;;;;;;5063804;28;20021;-65
2021/10/30 13:01:52;;;;;;;26.80;16.85;;;;;;;;;;5065587;28;20090;-69
2021/10/30 13:04:40;;;;;;;21.23;16.42;;;;;;;;;;5072680;28;20402;-66
2021/10/30 13:07:25;;;;;;;24.13;16.88;;;;;;;;;;5061197;28;20438;-61
2021/10/30 13:10:15;;;;;;;22.50;15.80;;;;;;;;;;5067352;28;20507;-64
2021/10/30 13:13:01;;;;;;;56.15;32.63;;;;;;;;;;5079477;28;20769;-63
2021/10/30 13:15:46;;;;;;;29.67;18.33;;;;;;;;;;5068024;28;20527;-64
2021/10/30 13:18:31;;;;;;;28.00;18.55;;;;;;;;;;5053419;28;20085;-64
2021/10/30 13:21:21;;;;;;;20.73;15.00;;;;;;;;;;5066542;28;20506;-67
2021/10/30 13:24:07;;;;;;;22.27;15.45;;;;;;;;;;5076898;28;20122;-67
2021/10/30 13:26:52;;;;;;;26.15;18.55;;;;;;;;;;5043865;28;20059;-65
2021/10/30 13:29:38;;;;;;;28.27;18.10;;;;;;;;;;5061521;28;20028;-66
2021/10/30 13:32:23;;;;;;;29.60;19.55;;;;;;;;;;5067039;28;20060;-65
2021/10/30 13:35:09;;;;;;;26.13;18.67;;;;;;;;;;5067769;28;20024;-64
2021/10/30 13:37:54;;;;;;;29.55;20.13;;;;;;;;;;5064451;28;20392;-66
2021/10/30 13:40:39;;;;;;;27.98;19.67;;;;;;;;;;5050140;28;20035;-66
2021/10/30 13:43:25;;;;;;;29.27;20.95;;;;;;;;;;5066586;28;20040;-61
2021/10/30 13:46:10;;;;;;;28.00;20.65;;;;;;;;;;5068335;28;20173;-62
2021/10/30 13:48:55;;;;;;;30.35;23.20;;;;;;;;;;5065929;28;20052;-62
2021/10/30 13:51:40;;;;;;;26.35;19.70;;;;;;;;;;5067411;28;20027;-63
2021/10/30 13:54:26;;;;;;;31.38;22.27;;;;;;;;;;5057660;28;20036;-61
2021/10/30 13:57:11;;;;;;;34.88;23.73;;;;;;;;;;5071804;28;20111;-61
2021/10/30 13:59:56;;;;;;;26.75;23.10;;;;;;;;;;5069065;28;20031;-73
2021/10/30 14:02:41;;;;;;;31.85;22.52;;;;;;;;;;5070610;28;20039;-61
2021/10/30 14:05:27;;;;;;;31.10;23.73;;;;;;;;;;5061017;28;20024;-62
2021/10/30 14:08:12;;;;;;;32.15;24.48;;;;;;;;;;5071082;28;20081;-64
2021/10/30 14:10:57;;;;;;;31.33;23.85;;;;;;;;;;5069922;28;20102;-62
2021/10/30 14:13:43;;;;;;;31.98;24.38;;;;;;;;;;5067732;28;20025;-61
2021/10/30 14:16:29;;;;;;;30.90;21.92;;;;;;;;;;5066630;28;20166;-63
2021/10/30 14:19:14;;;;;;;31.92;22.33;;;;;;;;;;5063087;28;20033;-67
2021/10/30 14:21:59;;;;;;;28.58;20.02;;;;;;;;;;5067791;28;20387;-62
2021/10/30 14:24:44;;;;;;;29.98;22.50;;;;;;;;;;5053189;28;20032;-61
2021/10/30 14:27:29;;;;;;;31.52;23.40;;;;;;;;;;5058379;28;20103;-62
2021/10/30 14:30:15;;;;;;;28.98;22.90;;;;;;;;;;5068471;28;20040;-60
2021/10/30 14:33:01;;;;;;;27.05;22.55;;;;;;;;;;5076801;28;20025;-64
2021/10/30 14:35:47;;;;;;;25.80;20.83;;;;;;;;;;5068317;28;20032;-61
2021/10/30 14:38:33;;;;;;;25.75;20.40;;;;;;;;;;5071001;28;20071;-66
2021/10/30 14:41:18;;;;;;;26.45;21.75;;;;;;;;;;5068460;28;20406;-73
2021/10/30 14:44:03;;;;;;;30.25;21.55;;;;;;;;;;5058618;28;20035;-73
2021/10/30 14:46:50;;;;;;;31.40;22.70;;;;;;;;;;5058246;28;20436;-78
2021/10/30 14:49:36;;;;;;;24.50;19.08;;;;;;;;;;5054754;28;20033;-77
2021/10/30 14:52:24;;;;;;;25.30;20.13;;;;;;;;;;5056170;28;20539;-76
2021/10/30 14:55:09;;;;;;;22.98;17.25;;;;;;;;;;5062415;28;20103;-60
2021/10/30 14:57:54;;;;;;;20.40;14.07;;;;;;;;;;5065443;28;20127;-64
2021/10/30 15:00:40;;;;;;;21.42;14.65;;;;;;;;;;5073611;28;20030;-61
2021/10/30 15:03:25;;;;;;;22.55;16.15;;;;;;;;;;5069829;28;20033;-60
2021/10/30 15:06:11;;;;;;;22.13;15.13;;;;;;;;;;5061813;28;20021;-60
2021/10/30 15:08:56;;;;;;;18.38;13.90;;;;;;;;;;5063054;28;20301;-62
2021/10/30 15:11:42;;;;;;;19.05;13.65;;;;;;;;;;5045297;28;20103;-62
2021/10/30 15:14:27;;;;;;;21.08;13.13;;;;;;;;;;5064464;28;20056;-66
2021/10/30 15:17:12;;;;;;;19.23;13.63;;;;;;;;;;5062010;28;20359;-67
2021/10/30 15:19:58;;;;;;;17.88;13.15;;;;;;;;;;5049309;28;20040;-65
2021/10/30 15:22:43;;;;;;;21.17;15.10;;;;;;;;;;5070501;28;20047;-69
2021/10/30 15:25:28;;;;;;;20.77;14.38;;;;;;;;;;5052357;28;20289;-66
2021/10/30 15:28:14;;;;;;;19.98;14.65;;;;;;;;;;5059898;28;20103;-68
2021/10/30 15:31:00;;;;;;;19.52;14.27;;;;;;;;;;5060503;28;20029;-67
2021/10/30 15:33:47;;;;;;;20.23;13.35;;;;;;;;;;5063237;28;20087;-63
2021/10/30 15:36:32;;;;;;;17.77;13.27;;;;;;;;;;5058087;28;20120;-64
2021/10/30 15:39:17;;;;;;;20.80;14.13;;;;;;;;;;5034264;28;20396;-66
2021/10/30 15:42:03;;;;;;;21.02;13.93;;;;;;;;;;5066871;28;20072;-66
2021/10/30 15:44:48;;;;;;;20.35;12.43;;;;;;;;;;5076917;28;20025;-67
2021/10/30 15:47:34;;;;;;;18.60;12.20;;;;;;;;;;5025506;28;1173191;-67
2021/10/30 15:50:20;;;;;;;21.55;13.60;;;;;;;;;;5057018;28;20650;-66
2021/10/30 15:53:05;;;;;;;19.30;12.55;;;;;;;;;;5061686;28;20113;-63
2021/10/30 15:55:50;;;;;;;20.58;13.20;;;;;;;;;;5063058;28;20041;-63
2021/10/30 15:58:36;;;;;;;18.83;11.48;;;;;;;;;;5061906;28;20419;-62
2021/10/30 16:01:21;;;;;;;16.52;11.60;;;;;;;;;;5067289;28;20032;-62
2021/10/30 16:04:06;;;;;;;18.08;12.10;;;;;;;;;;5063246;28;20102;-65
2021/10/30 16:06:55;;;;;;;17.58;12.40;;;;;;;;;;5052428;28;20020;-61
2021/10/30 16:09:41;;;;;;;20.60;13.63;;;;;;;;;;5067212;28;20029;-66
2021/10/30 16:12:26;;;;;;;18.50;13.70;;;;;;;;;;5065003;28;20586;-68